createdAt,value
2019-04-29T00:03:15.930Z,1.13
2019-04-29T00:08:20.304Z,1.03
2019-04-29T00:13:25.235Z,1.20
2019-04-29T00:18:37.155Z,1.30
2019-04-29T00:23:42.223Z,1.00
2019-04-29T00:28:50.244Z,1.07
2019-04-29T00:33:54.029Z,1.10
2019-04-29T00:39:17.468Z,1.00
2019-04-29T00:44:22.006Z,1.30
2019-04-29T00:49:26.890Z,1.30
2019-04-29T00:54:39.417Z,1.50
2019-04-29T00:59:44.102Z,1.00
2019-04-29T01:04:49.079Z,0.90
2019-04-29T01:09:53.480Z,1.10
2019-04-29T01:14:58.207Z,0.80
2019-04-29T01:20:02.769Z,0.90
2019-04-29T01:25:07.368Z,1.10
2019-04-29T01:30:33.895Z,1.63
2019-04-29T01:35:38.846Z,1.20
2019-04-29T01:40:52.897Z,1.20
2019-04-29T01:45:57.989Z,1.20
2019-04-29T01:51:02.767Z,1.00
2019-04-29T01:56:08.507Z,1.13
2019-04-29T02:01:14.070Z,1.20
2019-04-29T02:06:18.350Z,1.23
2019-04-29T02:11:23.244Z,1.30
2019-04-29T02:16:28.485Z,1.23
2019-04-29T02:21:34.470Z,1.33
2019-04-29T02:26:39.201Z,1.10
2019-04-29T02:31:45.685Z,1.07
2019-04-29T02:36:50.250Z,0.98
2019-04-29T02:42:13.658Z,1.13
2019-04-29T02:47:18.711Z,1.20
2019-04-29T02:52:23.122Z,1.00
2019-04-29T02:57:38.624Z,1.13
2019-04-29T03:02:51.252Z,1.10
2019-04-29T03:07:57.412Z,1.23
2019-04-29T03:13:02.441Z,1.10
2019-04-29T03:18:06.868Z,1.40
2019-04-29T03:23:14.528Z,1.15
2019-04-29T03:28:19.728Z,1.50
2019-04-29T03:33:24.978Z,1.40
2019-04-29T03:38:29.932Z,1.53
2019-04-29T03:43:35.013Z,1.67
2019-04-29T03:48:39.486Z,1.10
2019-04-29T03:53:44.192Z,1.20
2019-04-29T03:58:49.059Z,1.40
2019-04-29T04:03:58.288Z,1.70
2019-04-29T04:09:20.029Z,1.60
2019-04-29T04:14:25.116Z,1.50
2019-04-29T04:19:30.660Z,1.73
2019-04-29T04:24:35.225Z,1.40
2019-04-29T04:29:40.047Z,1.90
2019-04-29T04:34:47.883Z,1.60
2019-04-29T04:39:52.776Z,1.40
2019-04-29T04:44:57.965Z,1.50
2019-04-29T04:50:03.024Z,1.93
2019-04-29T04:55:07.880Z,1.90
2019-04-29T05:00:21.845Z,2.22
2019-04-29T05:05:27.429Z,1.97
2019-04-29T05:10:32.099Z,2.30
2019-04-29T05:15:36.731Z,1.90
2019-04-29T05:20:41.634Z,1.90
2019-04-29T05:25:45.974Z,2.37
2019-04-29T05:30:50.740Z,2.50
2019-04-29T05:36:13.199Z,2.20
2019-04-29T05:41:18.567Z,2.30
2019-04-29T05:46:38.261Z,1.80
2019-04-29T05:51:51.861Z,1.70
2019-04-29T05:56:56.908Z,1.97
2019-04-29T06:02:01.587Z,1.77
2019-04-29T06:07:06.372Z,2.10
2019-04-29T06:12:11.434Z,1.77
2019-04-29T06:17:15.937Z,1.80
2019-04-29T06:22:20.488Z,1.87
2019-04-29T06:27:25.220Z,2.20
2019-04-29T06:32:29.687Z,1.97
2019-04-29T06:37:34.380Z,1.93
2019-04-29T06:42:39.348Z,1.60
2019-04-29T06:47:44.531Z,1.50
2019-04-29T06:52:48.976Z,1.50
2019-04-29T06:57:53.700Z,1.63
2019-04-29T07:02:58.490Z,1.47
2019-04-29T07:08:03.331Z,1.60
2019-04-29T07:13:07.878Z,1.30
2019-04-29T07:18:12.710Z,1.40
2019-04-29T07:23:17.084Z,1.90
2019-04-29T07:28:21.816Z,1.97
2019-04-29T07:33:26.423Z,1.57
2019-04-29T07:38:41.343Z,2.03
2019-04-29T07:43:38.693Z,1.60
2019-04-29T07:48:43.846Z,1.90
2019-04-29T07:53:48.776Z,1.80
2019-04-29T07:58:54.278Z,1.77
2019-04-29T08:03:58.805Z,1.70
2019-04-29T08:09:07.959Z,1.63
2019-04-29T08:14:11.768Z,1.70
2019-04-29T08:19:16.303Z,2.00
2019-04-29T08:24:20.796Z,1.52
2019-04-29T08:29:25.533Z,1.70
2019-04-29T08:34:30.163Z,1.50
2019-04-29T08:39:36.049Z,1.50
2019-04-29T08:45:01.140Z,2.25
2019-04-29T08:50:06.015Z,1.37
2019-04-29T08:55:10.758Z,1.47
2019-04-29T09:00:16.683Z,1.55
2019-04-29T09:05:21.342Z,1.70
2019-04-29T09:10:26.242Z,1.87
2019-04-29T09:15:30.925Z,1.77
2019-04-29T09:20:35.731Z,2.02
2019-04-29T09:26:17.686Z,1.42
2019-04-29T09:31:22.619Z,1.80
2019-04-29T09:36:28.723Z,1.80
2019-04-29T09:41:40.309Z,1.47
2019-04-29T09:46:45.033Z,1.70
2019-04-29T09:51:49.775Z,2.00
2019-04-29T09:56:54.535Z,1.63
2019-04-29T10:02:26.201Z,1.98
2019-04-29T10:07:30.464Z,1.92
2019-04-29T10:12:35.073Z,2.80
2019-04-29T10:18:01.035Z,1.62
2019-04-29T10:23:05.660Z,1.62
2019-04-29T10:28:10.863Z,1.90
2019-04-29T10:33:17.743Z,1.90
2019-04-29T10:38:22.428Z,1.70
2019-04-29T10:43:55.907Z,1.90
2019-04-29T10:49:08.907Z,1.63
2019-04-29T10:54:14.323Z,1.33
2019-04-29T10:59:19.630Z,1.15
2019-04-29T11:04:26.389Z,1.50
2019-04-29T11:09:50.765Z,1.75
2019-04-29T11:14:56.424Z,1.50
2019-04-29T11:20:01.540Z,1.30
2019-04-29T11:25:29.185Z,1.77
2019-04-29T11:30:39.572Z,1.67
2019-04-29T11:35:51.196Z,1.60
2019-04-29T11:40:57.463Z,1.27
2019-04-29T11:46:02.511Z,1.30
2019-04-29T11:51:34.159Z,1.40
2019-04-29T11:56:39.854Z,2.15
2019-04-29T12:01:59.687Z,1.62
2019-04-29T12:07:04.027Z,1.60
2019-04-29T12:12:12.952Z,2.25
2019-04-29T12:17:41.639Z,2.02
2019-04-29T12:22:48.633Z,1.10
2019-04-29T12:28:01.258Z,2.43
2019-04-29T12:33:10.154Z,1.30
2019-04-29T12:38:49.848Z,2.35
2019-04-29T12:44:05.313Z,2.20
2019-04-29T12:49:13.524Z,1.60
2019-04-29T12:54:16.071Z,1.30
2019-04-29T12:59:20.875Z,2.35
2019-04-29T13:04:56.442Z,1.20
2019-04-29T13:10:07.031Z,1.92
2019-04-29T13:15:33.332Z,2.08
2019-04-29T13:20:41.585Z,2.45
2019-04-29T13:25:44.914Z,2.20
2019-04-29T13:30:51.534Z,1.60
2019-04-29T13:35:55.700Z,2.12
2019-04-29T13:41:13.247Z,2.08
2019-04-29T13:46:31.363Z,1.33
2019-04-29T13:51:36.955Z,0.93
2019-04-29T13:56:55.598Z,1.45
2019-04-29T14:02:01.301Z,1.23
2019-04-29T14:07:04.081Z,1.20
2019-04-29T14:12:46.456Z,1.57
2019-04-29T14:17:26.026Z,1.30
2019-04-29T14:22:22.765Z,1.30
2019-04-29T14:27:27.481Z,1.22
2019-04-29T14:32:36.074Z,1.40
2019-04-29T14:37:38.889Z,1.30
2019-04-29T14:43:02.877Z,1.10
2019-04-29T14:48:41.286Z,1.40
2019-04-29T14:53:33.887Z,1.43
2019-04-29T14:58:38.746Z,1.37
2019-04-29T15:03:55.376Z,1.20
2019-04-29T15:09:01.132Z,1.30
2019-04-29T15:14:25.716Z,1.37
2019-04-29T15:19:54.713Z,1.20
2019-04-29T15:24:56.236Z,1.37
2019-04-29T15:36:06.253Z,1.10
2019-04-29T15:41:11.309Z,1.57
2019-04-29T15:46:16.054Z,1.30
2019-04-29T15:51:21.304Z,1.17
2019-04-29T16:01:33.492Z,1.53
2019-04-29T16:06:53.357Z,1.50
2019-04-29T16:12:20.221Z,1.80
2019-04-29T16:17:25.692Z,1.90
2019-04-29T16:22:30.212Z,1.47
2019-04-29T16:27:34.758Z,1.30
2019-04-29T16:32:42.478Z,1.80
2019-04-29T16:37:48.030Z,1.67
2019-04-29T16:43:10.228Z,2.10
2019-04-29T16:48:15.804Z,2.63
2019-04-29T16:53:21.231Z,2.20
2019-04-29T16:58:26.192Z,1.60
2019-04-29T17:03:30.955Z,1.98
2019-04-29T17:09:02.995Z,2.70
2019-04-29T17:14:03.382Z,2.93
2019-04-29T17:19:07.667Z,2.73
2019-04-29T17:24:13.037Z,2.03
2019-04-29T17:29:39.340Z,2.03
2019-04-29T17:34:59.083Z,2.40
2019-04-29T17:35:17.074Z,1.20
2019-04-29T17:39:51.579Z,3.00
2019-04-29T17:44:56.784Z,2.13
2019-04-29T17:50:13.818Z,2.10
2019-04-29T17:55:38.086Z,2.10
2019-04-29T18:00:59.587Z,2.23
2019-04-29T18:06:08.979Z,2.75
2019-04-29T18:11:15.018Z,2.53
2019-04-29T18:16:25.997Z,11.60
2019-04-29T18:21:47.360Z,7.23
2019-04-29T18:26:57.340Z,5.27
2019-04-29T18:32:05.171Z,5.47
2019-04-29T18:37:10.855Z,6.97
2019-04-29T18:42:16.005Z,8.53
2019-04-29T18:47:23.108Z,5.33
2019-04-29T18:52:28.491Z,8.10
2019-04-29T18:57:33.634Z,4.17
2019-04-29T19:02:45.443Z,3.33
2019-04-29T19:07:55.029Z,3.70
2019-04-29T19:13:00.055Z,4.27
2019-04-29T19:18:05.506Z,3.75
2019-04-29T19:23:10.405Z,3.90
2019-04-29T19:28:24.943Z,4.10
2019-04-29T19:33:21.629Z,3.47
2019-04-29T19:38:26.615Z,2.50
2019-04-29T19:43:31.702Z,2.10
2019-04-29T19:48:36.753Z,2.40
2019-04-29T19:53:43.418Z,2.77
2019-04-29T19:58:48.894Z,2.60
2019-04-29T20:04:17.738Z,2.60
2019-04-29T20:09:23.556Z,2.60
2019-04-29T20:14:33.265Z,2.13
2019-04-29T20:20:00.810Z,2.20
2019-04-29T20:25:16.665Z,1.90
2019-04-29T20:30:21.619Z,2.47
2019-04-29T20:35:26.802Z,2.40
2019-04-29T20:40:37.897Z,2.10
2019-04-29T20:45:38.438Z,2.40
2019-04-29T20:50:47.038Z,2.87
2019-04-29T20:55:49.458Z,2.17
2019-04-29T21:00:58.198Z,2.40
2019-04-29T21:06:02.897Z,2.63
2019-04-29T21:11:14.357Z,2.50
2019-04-29T21:16:29.137Z,2.90
2019-04-29T21:21:32.022Z,3.50
2019-04-29T21:26:43.940Z,2.77
2019-04-29T21:31:45.900Z,3.27
2019-04-29T21:37:10.176Z,2.77
2019-04-29T21:42:35.786Z,3.03
2019-04-29T21:47:44.307Z,3.17
2019-04-29T21:52:42.957Z,3.10
2019-04-29T21:57:47.467Z,3.13
2019-04-29T22:02:55.293Z,3.20
2019-04-29T22:08:00.155Z,3.37
2019-04-29T22:13:05.125Z,2.97
2019-04-29T22:18:13.998Z,3.50
2019-04-29T22:23:17.454Z,4.40
2019-04-29T22:28:24.522Z,3.97
2019-04-29T22:33:35.013Z,4.10
2019-04-29T22:38:37.615Z,4.40
2019-04-29T22:43:50.466Z,4.10
2019-04-29T22:48:55.798Z,4.30
2019-04-29T22:54:01.737Z,4.70
2019-04-29T22:59:06.524Z,4.70
2019-04-29T23:04:14.606Z,5.60
2019-04-29T23:09:18.271Z,5.00
2019-04-29T23:14:25.161Z,5.37
2019-04-29T23:19:31.140Z,5.23
2019-04-29T23:24:55.727Z,6.20
2019-04-29T23:30:01.609Z,6.28
2019-04-29T23:35:09.684Z,5.33
2019-04-29T23:40:13.594Z,6.00
2019-04-29T23:45:21.013Z,5.87
2019-04-29T23:50:28.071Z,6.40
2019-04-29T23:55:32.309Z,6.77
